sensor_id;sensor_type;location;lat;lon;timestamp;P1;durP1;ratioP1;P2;durP2;ratioP2
79570;SDS011;69034;49.444;7.758;2023-04-24T00:03:10;1.20;;;0.40;;
79570;SDS011;69034;49.444;7.758;2023-04-24T00:07:11;1.80;;;0.47;;
79570;SDS011;69034;49.444;7.758;2023-04-24T00:11:13;1.52;;;0.65;;
79570;SDS011;69034;49.444;7.758;2023-04-24T00:15:13;2.70;;;0.90;;
79570;SDS011;69034;49.444;7.758;2023-04-24T00:19:14;2.80;;;0.80;;
79570;SDS011;69034;49.444;7.758;2023-04-24T00:23:14;1.80;;;0.60;;
79570;SDS011;69034;49.444;7.758;2023-04-24T00:27:15;2.78;;;0.55;;
79570;SDS011;69034;49.444;7.758;2023-04-24T00:31:16;2.28;;;0.65;;
79570;SDS011;69034;49.444;7.758;2023-04-24T00:35:16;1.20;;;0.55;;
79570;SDS011;69034;49.444;7.758;2023-04-24T00:39:19;0.70;;;0.32;;
79570;SDS011;69034;49.444;7.758;2023-04-24T00:43:20;4.50;;;0.73;;
79570;SDS011;69034;49.444;7.758;2023-04-24T00:47:21;2.17;;;0.80;;
79570;SDS011;69034;49.444;7.758;2023-04-24T00:51:22;4.43;;;1.15;;
79570;SDS011;69034;49.444;7.758;2023-04-24T00:55:24;1.95;;;0.63;;
79570;SDS011;69034;49.444;7.758;2023-04-24T00:59:26;2.00;;;0.45;;
79570;SDS011;69034;49.444;7.758;2023-04-24T01:03:28;3.22;;;0.68;;
79570;SDS011;69034;49.444;7.758;2023-04-24T01:07:31;7.47;;;1.40;;
79570;SDS011;69034;49.444;7.758;2023-04-24T01:11:32;1.33;;;0.50;;
79570;SDS011;69034;49.444;7.758;2023-04-24T01:15:33;0.75;;;0.35;;
79570;SDS011;69034;49.444;7.758;2023-04-24T01:19:34;3.15;;;0.70;;
79570;SDS011;69034;49.444;7.758;2023-04-24T01:23:35;1.95;;;0.75;;
79570;SDS011;69034;49.444;7.758;2023-04-24T01:27:36;1.98;;;0.70;;
79570;SDS011;69034;49.444;7.758;2023-04-24T01:31:36;1.70;;;0.50;;
79570;SDS011;69034;49.444;7.758;2023-04-24T01:35:38;1.10;;;0.63;;
79570;SDS011;69034;49.444;7.758;2023-04-24T01:39:39;0.85;;;0.50;;
79570;SDS011;69034;49.444;7.758;2023-04-24T01:43:39;0.75;;;0.40;;
79570;SDS011;69034;49.444;7.758;2023-04-24T01:47:40;1.73;;;0.50;;
79570;SDS011;69034;49.444;7.758;2023-04-24T01:51:42;1.55;;;0.60;;
79570;SDS011;69034;49.444;7.758;2023-04-24T01:55:42;2.28;;;0.80;;
79570;SDS011;69034;49.444;7.758;2023-04-24T01:59:43;0.82;;;0.40;;
79570;SDS011;69034;49.444;7.758;2023-04-24T02:03:44;1.58;;;0.57;;
79570;SDS011;69034;49.444;7.758;2023-04-24T02:07:45;1.67;;;0.90;;
79570;SDS011;69034;49.444;7.758;2023-04-24T02:11:45;2.03;;;0.73;;
79570;SDS011;69034;49.444;7.758;2023-04-24T02:15:46;1.67;;;0.60;;
79570;SDS011;69034;49.444;7.758;2023-04-24T02:19:47;3.35;;;0.98;;
79570;SDS011;69034;49.444;7.758;2023-04-24T02:23:48;4.22;;;0.95;;
79570;SDS011;69034;49.444;7.758;2023-04-24T02:27:48;1.67;;;0.57;;
79570;SDS011;69034;49.444;7.758;2023-04-24T02:31:49;2.22;;;0.55;;
79570;SDS011;69034;49.444;7.758;2023-04-24T02:35:50;2.13;;;0.88;;
79570;SDS011;69034;49.444;7.758;2023-04-24T02:39:51;1.55;;;0.80;;
79570;SDS011;69034;49.444;7.758;2023-04-24T02:43:51;1.63;;;0.70;;
79570;SDS011;69034;49.444;7.758;2023-04-24T02:47:52;2.75;;;1.10;;
79570;SDS011;69034;49.444;7.758;2023-04-24T02:51:52;2.95;;;1.45;;
79570;SDS011;69034;49.444;7.758;2023-04-24T02:55:53;1.67;;;0.70;;
79570;SDS011;69034;49.444;7.758;2023-04-24T02:59:54;1.83;;;0.73;;
79570;SDS011;69034;49.444;7.758;2023-04-24T03:03:54;2.72;;;1.02;;
79570;SDS011;69034;49.444;7.758;2023-04-24T03:07:55;1.88;;;0.90;;
79570;SDS011;69034;49.444;7.758;2023-04-24T03:11:56;2.33;;;0.95;;
79570;SDS011;69034;49.444;7.758;2023-04-24T03:15:57;3.17;;;1.17;;
79570;SDS011;69034;49.444;7.758;2023-04-24T03:19:57;3.33;;;1.20;;
79570;SDS011;69034;49.444;7.758;2023-04-24T03:23:58;2.20;;;0.90;;
79570;SDS011;69034;49.444;7.758;2023-04-24T03:27:58;1.73;;;0.73;;
79570;SDS011;69034;49.444;7.758;2023-04-24T03:31:59;1.95;;;0.98;;
79570;SDS011;69034;49.444;7.758;2023-04-24T03:36:00;2.65;;;1.10;;
79570;SDS011;69034;49.444;7.758;2023-04-24T03:40:01;2.75;;;1.00;;
79570;SDS011;69034;49.444;7.758;2023-04-24T03:44:02;3.03;;;1.38;;
79570;SDS011;69034;49.444;7.758;2023-04-24T03:48:02;2.53;;;1.15;;
79570;SDS011;69034;49.444;7.758;2023-04-24T03:52:03;3.10;;;1.65;;
79570;SDS011;69034;49.444;7.758;2023-04-24T03:56:04;8.52;;;1.30;;
79570;SDS011;69034;49.444;7.758;2023-04-24T04:00:05;2.72;;;1.30;;
79570;SDS011;69034;49.444;7.758;2023-04-24T04:04:06;5.38;;;1.70;;
79570;SDS011;69034;49.444;7.758;2023-04-24T04:08:08;4.15;;;1.75;;
79570;SDS011;69034;49.444;7.758;2023-04-24T04:12:08;6.28;;;1.90;;
79570;SDS011;69034;49.444;7.758;2023-04-24T04:16:09;2.95;;;1.30;;
79570;SDS011;69034;49.444;7.758;2023-04-24T04:20:09;2.28;;;1.13;;
79570;SDS011;69034;49.444;7.758;2023-04-24T04:24:11;3.10;;;1.20;;
79570;SDS011;69034;49.444;7.758;2023-04-24T04:28:11;2.83;;;1.15;;
79570;SDS011;69034;49.444;7.758;2023-04-24T04:32:12;4.45;;;1.50;;
79570;SDS011;69034;49.444;7.758;2023-04-24T04:36:13;4.20;;;1.92;;
79570;SDS011;69034;49.444;7.758;2023-04-24T04:40:13;3.20;;;1.63;;
79570;SDS011;69034;49.444;7.758;2023-04-24T04:44:14;6.97;;;1.45;;
79570;SDS011;69034;49.444;7.758;2023-04-24T04:48:15;4.43;;;1.75;;
79570;SDS011;69034;49.444;7.758;2023-04-24T04:52:17;3.90;;;1.95;;
79570;SDS011;69034;49.444;7.758;2023-04-24T04:56:18;2.13;;;1.02;;
79570;SDS011;69034;49.444;7.758;2023-04-24T05:00:19;2.72;;;1.35;;
79570;SDS011;69034;49.444;7.758;2023-04-24T05:04:21;5.00;;;2.25;;
79570;SDS011;69034;49.444;7.758;2023-04-24T05:08:21;3.22;;;1.55;;
79570;SDS011;69034;49.444;7.758;2023-04-24T05:12:22;3.95;;;2.10;;
79570;SDS011;69034;49.444;7.758;2023-04-24T05:16:22;6.20;;;1.95;;
79570;SDS011;69034;49.444;7.758;2023-04-24T05:20:23;4.68;;;2.25;;
79570;SDS011;69034;49.444;7.758;2023-04-24T05:24:24;4.05;;;1.98;;
79570;SDS011;69034;49.444;7.758;2023-04-24T05:28:24;3.17;;;1.83;;
79570;SDS011;69034;49.444;7.758;2023-04-24T05:32:28;5.28;;;1.80;;
79570;SDS011;69034;49.444;7.758;2023-04-24T05:36:28;4.38;;;1.98;;
79570;SDS011;69034;49.444;7.758;2023-04-24T05:40:29;6.07;;;2.20;;
79570;SDS011;69034;49.444;7.758;2023-04-24T05:44:30;4.47;;;2.30;;
79570;SDS011;69034;49.444;7.758;2023-04-24T05:48:30;3.28;;;1.70;;
79570;SDS011;69034;49.444;7.758;2023-04-24T05:52:31;6.47;;;2.45;;
79570;SDS011;69034;49.444;7.758;2023-04-24T05:56:32;5.50;;;1.50;;
79570;SDS011;69034;49.444;7.758;2023-04-24T06:00:32;3.85;;;1.98;;
79570;SDS011;69034;49.444;7.758;2023-04-24T06:04:33;5.18;;;2.30;;
79570;SDS011;69034;49.444;7.758;2023-04-24T06:08:34;3.47;;;1.75;;
79570;SDS011;69034;49.444;7.758;2023-04-24T06:12:35;3.75;;;1.75;;
79570;SDS011;69034;49.444;7.758;2023-04-24T06:16:37;3.38;;;1.35;;
79570;SDS011;69034;49.444;7.758;2023-04-24T06:20:39;2.53;;;1.20;;
79570;SDS011;69034;49.444;7.758;2023-04-24T06:24:40;4.07;;;1.75;;
79570;SDS011;69034;49.444;7.758;2023-04-24T06:28:40;3.83;;;1.38;;
79570;SDS011;69034;49.444;7.758;2023-04-24T06:32:41;2.95;;;1.67;;
79570;SDS011;69034;49.444;7.758;2023-04-24T06:36:42;2.63;;;1.17;;
79570;SDS011;69034;49.444;7.758;2023-04-24T06:40:42;3.17;;;1.50;;
79570;SDS011;69034;49.444;7.758;2023-04-24T06:44:43;3.75;;;1.50;;
79570;SDS011;69034;49.444;7.758;2023-04-24T06:48:44;3.10;;;0.95;;
79570;SDS011;69034;49.444;7.758;2023-04-24T06:52:44;4.72;;;1.45;;
79570;SDS011;69034;49.444;7.758;2023-04-24T06:56:45;3.53;;;1.77;;
79570;SDS011;69034;49.444;7.758;2023-04-24T07:00:47;2.30;;;1.10;;
79570;SDS011;69034;49.444;7.758;2023-04-24T07:04:48;2.80;;;1.30;;
79570;SDS011;69034;49.444;7.758;2023-04-24T07:08:48;3.92;;;1.40;;
79570;SDS011;69034;49.444;7.758;2023-04-24T07:12:49;3.65;;;1.67;;
79570;SDS011;69034;49.444;7.758;2023-04-24T07:16:50;2.90;;;1.30;;
79570;SDS011;69034;49.444;7.758;2023-04-24T07:20:51;2.90;;;1.25;;
79570;SDS011;69034;49.444;7.758;2023-04-24T07:24:51;4.18;;;1.45;;
79570;SDS011;69034;49.444;7.758;2023-04-24T07:28:52;2.60;;;1.13;;
79570;SDS011;69034;49.444;7.758;2023-04-24T07:32:53;2.80;;;1.15;;
79570;SDS011;69034;49.444;7.758;2023-04-24T07:36:53;2.38;;;0.90;;
79570;SDS011;69034;49.444;7.758;2023-04-24T07:40:54;3.17;;;1.20;;
79570;SDS011;69034;49.444;7.758;2023-04-24T07:44:55;2.97;;;1.20;;
79570;SDS011;69034;49.444;7.758;2023-04-24T07:48:56;4.28;;;1.30;;
79570;SDS011;69034;49.444;7.758;2023-04-24T07:52:57;2.80;;;1.08;;
79570;SDS011;69034;49.444;7.758;2023-04-24T07:56:58;4.25;;;1.33;;
79570;SDS011;69034;49.444;7.758;2023-04-24T08:00:58;3.08;;;1.40;;
79570;SDS011;69034;49.444;7.758;2023-04-24T08:04:59;2.85;;;1.50;;
79570;SDS011;69034;49.444;7.758;2023-04-24T08:09:00;2.83;;;1.35;;
79570;SDS011;69034;49.444;7.758;2023-04-24T08:13:00;4.30;;;1.60;;
79570;SDS011;69034;49.444;7.758;2023-04-24T08:17:01;2.63;;;1.25;;
79570;SDS011;69034;49.444;7.758;2023-04-24T08:21:03;3.50;;;1.52;;
79570;SDS011;69034;49.444;7.758;2023-04-24T08:25:04;3.83;;;1.40;;
79570;SDS011;69034;49.444;7.758;2023-04-24T08:29:05;2.28;;;1.00;;
79570;SDS011;69034;49.444;7.758;2023-04-24T08:33:06;2.75;;;1.33;;
79570;SDS011;69034;49.444;7.758;2023-04-24T08:37:07;3.67;;;1.67;;
79570;SDS011;69034;49.444;7.758;2023-04-24T08:41:07;2.88;;;1.40;;
79570;SDS011;69034;49.444;7.758;2023-04-24T08:45:10;3.35;;;1.63;;
79570;SDS011;69034;49.444;7.758;2023-04-24T08:49:15;2.22;;;0.98;;
79570;SDS011;69034;49.444;7.758;2023-04-24T08:53:18;3.00;;;1.38;;
79570;SDS011;69034;49.444;7.758;2023-04-24T08:57:19;5.65;;;1.65;;
79570;SDS011;69034;49.444;7.758;2023-04-24T09:01:20;4.13;;;1.63;;
79570;SDS011;69034;49.444;7.758;2023-04-24T09:05:23;5.90;;;1.70;;
79570;SDS011;69034;49.444;7.758;2023-04-24T09:09:24;4.43;;;1.63;;
79570;SDS011;69034;49.444;7.758;2023-04-24T09:13:25;3.78;;;1.60;;
79570;SDS011;69034;49.444;7.758;2023-04-24T09:17:26;2.90;;;1.30;;
79570;SDS011;69034;49.444;7.758;2023-04-24T09:21:32;6.30;;;1.98;;
79570;SDS011;69034;49.444;7.758;2023-04-24T09:25:34;5.20;;;1.90;;
79570;SDS011;69034;49.444;7.758;2023-04-24T09:29:37;3.53;;;1.52;;
79570;SDS011;69034;49.444;7.758;2023-04-24T09:33:38;3.63;;;1.77;;
79570;SDS011;69034;49.444;7.758;2023-04-24T09:37:40;5.38;;;1.90;;
79570;SDS011;69034;49.444;7.758;2023-04-24T09:41:45;4.65;;;2.13;;
79570;SDS011;69034;49.444;7.758;2023-04-24T09:45:49;3.33;;;1.52;;
79570;SDS011;69034;49.444;7.758;2023-04-24T09:49:57;4.07;;;1.73;;
79570;SDS011;69034;49.444;7.758;2023-04-24T09:53:58;3.42;;;1.75;;
79570;SDS011;69034;49.444;7.758;2023-04-24T09:57:59;3.60;;;1.70;;
79570;SDS011;69034;49.444;7.758;2023-04-24T10:02:01;4.82;;;2.15;;
79570;SDS011;69034;49.444;7.758;2023-04-24T10:06:02;7.28;;;2.05;;
79570;SDS011;69034;49.444;7.758;2023-04-24T10:10:08;3.17;;;1.77;;
79570;SDS011;69034;49.444;7.758;2023-04-24T10:14:10;2.97;;;1.35;;
79570;SDS011;69034;49.444;7.758;2023-04-24T10:18:16;4.78;;;2.35;;
79570;SDS011;69034;49.444;7.758;2023-04-24T10:22:17;4.68;;;1.80;;
79570;SDS011;69034;49.444;7.758;2023-04-24T10:26:18;5.05;;;2.05;;
79570;SDS011;69034;49.444;7.758;2023-04-24T10:30:20;3.83;;;2.13;;
79570;SDS011;69034;49.444;7.758;2023-04-24T10:34:20;4.80;;;2.40;;
79570;SDS011;69034;49.444;7.758;2023-04-24T10:38:24;5.82;;;2.78;;
79570;SDS011;69034;49.444;7.758;2023-04-24T10:42:27;5.47;;;2.35;;
79570;SDS011;69034;49.444;7.758;2023-04-24T10:46:28;3.78;;;1.88;;
79570;SDS011;69034;49.444;7.758;2023-04-24T10:55:02;4.00;;;2.40;;
79570;SDS011;69034;49.444;7.758;2023-04-24T10:59:04;4.50;;;2.40;;
79570;SDS011;69034;49.444;7.758;2023-04-24T11:07:23;5.13;;;2.03;;
79570;SDS011;69034;49.444;7.758;2023-04-24T11:11:24;4.47;;;2.20;;
79570;SDS011;69034;49.444;7.758;2023-04-24T11:15:28;5.03;;;2.22;;
79570;SDS011;69034;49.444;7.758;2023-04-24T11:19:29;5.13;;;2.83;;
79570;SDS011;69034;49.444;7.758;2023-04-24T11:23:35;4.50;;;2.53;;
79570;SDS011;69034;49.444;7.758;2023-04-24T11:27:40;5.75;;;2.80;;
79570;SDS011;69034;49.444;7.758;2023-04-24T11:31:43;6.65;;;2.60;;
79570;SDS011;69034;49.444;7.758;2023-04-24T11:35:49;5.85;;;2.03;;
79570;SDS011;69034;49.444;7.758;2023-04-24T11:39:55;3.92;;;2.15;;
79570;SDS011;69034;49.444;7.758;2023-04-24T11:43:57;4.97;;;2.40;;
79570;SDS011;69034;49.444;7.758;2023-04-24T11:47:58;5.45;;;1.73;;
79570;SDS011;69034;49.444;7.758;2023-04-24T11:51:59;4.70;;;2.50;;
79570;SDS011;69034;49.444;7.758;2023-04-24T11:56:04;3.65;;;1.77;;
79570;SDS011;69034;49.444;7.758;2023-04-24T12:00:06;4.45;;;2.00;;
79570;SDS011;69034;49.444;7.758;2023-04-24T12:04:08;3.92;;;2.05;;
79570;SDS011;69034;49.444;7.758;2023-04-24T12:08:08;7.72;;;2.67;;
79570;SDS011;69034;49.444;7.758;2023-04-24T12:12:10;3.88;;;2.20;;
79570;SDS011;69034;49.444;7.758;2023-04-24T12:16:11;3.92;;;1.55;;
79570;SDS011;69034;49.444;7.758;2023-04-24T12:20:13;4.65;;;2.00;;
79570;SDS011;69034;49.444;7.758;2023-04-24T12:24:14;5.00;;;2.47;;
79570;SDS011;69034;49.444;7.758;2023-04-24T12:28:15;5.68;;;2.42;;
79570;SDS011;69034;49.444;7.758;2023-04-24T12:32:16;5.28;;;2.35;;
79570;SDS011;69034;49.444;7.758;2023-04-24T12:36:17;3.33;;;1.83;;
79570;SDS011;69034;49.444;7.758;2023-04-24T12:40:18;5.72;;;2.13;;
79570;SDS011;69034;49.444;7.758;2023-04-24T12:44:20;4.22;;;2.20;;
79570;SDS011;69034;49.444;7.758;2023-04-24T12:48:20;4.68;;;2.28;;
79570;SDS011;69034;49.444;7.758;2023-04-24T12:52:22;4.70;;;2.63;;
79570;SDS011;69034;49.444;7.758;2023-04-24T12:56:24;5.55;;;2.10;;
79570;SDS011;69034;49.444;7.758;2023-04-24T13:00:24;5.80;;;2.95;;
79570;SDS011;69034;49.444;7.758;2023-04-24T13:04:25;4.30;;;2.30;;
79570;SDS011;69034;49.444;7.758;2023-04-24T13:08:26;5.32;;;2.25;;
79570;SDS011;69034;49.444;7.758;2023-04-24T13:12:26;6.78;;;2.50;;
79570;SDS011;69034;49.444;7.758;2023-04-24T13:16:27;5.22;;;2.60;;
79570;SDS011;69034;49.444;7.758;2023-04-24T13:20:27;5.22;;;1.88;;
79570;SDS011;69034;49.444;7.758;2023-04-24T13:24:29;3.70;;;1.80;;
79570;SDS011;69034;49.444;7.758;2023-04-24T13:28:31;2.83;;;1.63;;
79570;SDS011;69034;49.444;7.758;2023-04-24T13:32:31;5.10;;;2.63;;
79570;SDS011;69034;49.444;7.758;2023-04-24T13:36:33;4.07;;;1.83;;
79570;SDS011;69034;49.444;7.758;2023-04-24T13:40:34;6.45;;;2.67;;
79570;SDS011;69034;49.444;7.758;2023-04-24T13:44:34;4.70;;;2.35;;
79570;SDS011;69034;49.444;7.758;2023-04-24T13:48:35;5.68;;;2.92;;
79570;SDS011;69034;49.444;7.758;2023-04-24T13:52:36;5.45;;;2.80;;
79570;SDS011;69034;49.444;7.758;2023-04-24T13:56:36;4.55;;;2.10;;
79570;SDS011;69034;49.444;7.758;2023-04-24T14:00:38;4.80;;;2.10;;
79570;SDS011;69034;49.444;7.758;2023-04-24T14:04:40;4.53;;;2.08;;
79570;SDS011;69034;49.444;7.758;2023-04-24T14:08:40;3.60;;;1.88;;
79570;SDS011;69034;49.444;7.758;2023-04-24T14:12:41;3.72;;;2.03;;
79570;SDS011;69034;49.444;7.758;2023-04-24T14:16:41;3.58;;;1.88;;
79570;SDS011;69034;49.444;7.758;2023-04-24T14:20:42;4.57;;;2.60;;
79570;SDS011;69034;49.444;7.758;2023-04-24T14:24:49;5.50;;;2.05;;
79570;SDS011;69034;49.444;7.758;2023-04-24T14:28:50;3.65;;;1.60;;
79570;SDS011;69034;49.444;7.758;2023-04-24T14:32:54;5.05;;;2.17;;
79570;SDS011;69034;49.444;7.758;2023-04-24T14:36:55;5.28;;;2.42;;
79570;SDS011;69034;49.444;7.758;2023-04-24T14:40:56;5.75;;;2.20;;
79570;SDS011;69034;49.444;7.758;2023-04-24T14:44:57;4.13;;;1.95;;
79570;SDS011;69034;49.444;7.758;2023-04-24T14:48:57;10.43;;;2.03;;
79570;SDS011;69034;49.444;7.758;2023-04-24T14:52:58;6.15;;;2.35;;
79570;SDS011;69034;49.444;7.758;2023-04-24T14:56:59;4.45;;;1.73;;
79570;SDS011;69034;49.444;7.758;2023-04-24T15:01:01;5.63;;;1.88;;
79570;SDS011;69034;49.444;7.758;2023-04-24T15:05:01;3.97;;;2.00;;
79570;SDS011;69034;49.444;7.758;2023-04-24T15:09:02;3.55;;;1.80;;
79570;SDS011;69034;49.444;7.758;2023-04-24T15:13:03;4.25;;;1.70;;
79570;SDS011;69034;49.444;7.758;2023-04-24T15:17:04;2.80;;;1.50;;
79570;SDS011;69034;49.444;7.758;2023-04-24T15:21:05;3.33;;;1.67;;
79570;SDS011;69034;49.444;7.758;2023-04-24T15:25:05;3.05;;;1.52;;
79570;SDS011;69034;49.444;7.758;2023-04-24T15:29:06;2.85;;;1.50;;
79570;SDS011;69034;49.444;7.758;2023-04-24T15:33:07;3.20;;;1.73;;
79570;SDS011;69034;49.444;7.758;2023-04-24T15:37:07;4.70;;;1.52;;
79570;SDS011;69034;49.444;7.758;2023-04-24T15:41:08;3.03;;;1.63;;
79570;SDS011;69034;49.444;7.758;2023-04-24T15:45:09;3.53;;;1.88;;
79570;SDS011;69034;49.444;7.758;2023-04-24T15:49:10;4.43;;;1.92;;
79570;SDS011;69034;49.444;7.758;2023-04-24T15:53:10;3.33;;;1.55;;
79570;SDS011;69034;49.444;7.758;2023-04-24T15:57:11;3.17;;;1.70;;
79570;SDS011;69034;49.444;7.758;2023-04-24T16:01:12;4.47;;;1.88;;
79570;SDS011;69034;49.444;7.758;2023-04-24T16:05:13;3.65;;;1.58;;
79570;SDS011;69034;49.444;7.758;2023-04-24T16:09:13;5.50;;;1.95;;
79570;SDS011;69034;49.444;7.758;2023-04-24T16:13:14;4.25;;;1.90;;
79570;SDS011;69034;49.444;7.758;2023-04-24T16:17:17;4.28;;;1.77;;
79570;SDS011;69034;49.444;7.758;2023-04-24T16:21:18;5.40;;;2.20;;
79570;SDS011;69034;49.444;7.758;2023-04-24T16:25:20;7.90;;;1.95;;
79570;SDS011;69034;49.444;7.758;2023-04-24T16:29:20;4.82;;;2.78;;
79570;SDS011;69034;49.444;7.758;2023-04-24T16:33:21;4.03;;;2.03;;
79570;SDS011;69034;49.444;7.758;2023-04-24T16:37:22;4.32;;;2.10;;
79570;SDS011;69034;49.444;7.758;2023-04-24T16:41:22;6.38;;;2.10;;
79570;SDS011;69034;49.444;7.758;2023-04-24T16:45:23;7.70;;;2.38;;
79570;SDS011;69034;49.444;7.758;2023-04-24T16:49:23;4.60;;;1.80;;
79570;SDS011;69034;49.444;7.758;2023-04-24T16:57:30;5.75;;;1.90;;
79570;SDS011;69034;49.444;7.758;2023-04-24T17:01:30;4.85;;;1.88;;
79570;SDS011;69034;49.444;7.758;2023-04-24T17:05:31;5.00;;;1.80;;
79570;SDS011;69034;49.444;7.758;2023-04-24T17:09:32;3.35;;;1.75;;
79570;SDS011;69034;49.444;7.758;2023-04-24T17:13:33;6.00;;;1.90;;
79570;SDS011;69034;49.444;7.758;2023-04-24T17:17:34;3.70;;;1.63;;
79570;SDS011;69034;49.444;7.758;2023-04-24T17:21:35;7.13;;;1.80;;
79570;SDS011;69034;49.444;7.758;2023-04-24T17:25:36;2.75;;;1.30;;
79570;SDS011;69034;49.444;7.758;2023-04-24T17:29:36;9.68;;;5.53;;
79570;SDS011;69034;49.444;7.758;2023-04-24T17:33:37;9.48;;;6.50;;
79570;SDS011;69034;49.444;7.758;2023-04-24T17:37:38;6.10;;;3.17;;
79570;SDS011;69034;49.444;7.758;2023-04-24T17:41:38;7.70;;;4.18;;
79570;SDS011;69034;49.444;7.758;2023-04-24T17:45:39;5.63;;;2.75;;
79570;SDS011;69034;49.444;7.758;2023-04-24T17:49:40;5.82;;;3.40;;
79570;SDS011;69034;49.444;7.758;2023-04-24T17:53:41;5.90;;;2.20;;
79570;SDS011;69034;49.444;7.758;2023-04-24T17:57:43;4.30;;;2.17;;
79570;SDS011;69034;49.444;7.758;2023-04-24T18:01:44;5.45;;;2.30;;
79570;SDS011;69034;49.444;7.758;2023-04-24T18:05:44;4.32;;;1.60;;
79570;SDS011;69034;49.444;7.758;2023-04-24T18:09:45;4.75;;;2.20;;
79570;SDS011;69034;49.444;7.758;2023-04-24T18:13:46;4.05;;;1.88;;
79570;SDS011;69034;49.444;7.758;2023-04-24T18:17:47;4.68;;;2.33;;
79570;SDS011;69034;49.444;7.758;2023-04-24T18:21:48;4.57;;;1.50;;
79570;SDS011;69034;49.444;7.758;2023-04-24T18:25:49;6.35;;;2.10;;
79570;SDS011;69034;49.444;7.758;2023-04-24T18:29:50;4.82;;;1.92;;
79570;SDS011;69034;49.444;7.758;2023-04-24T18:33:51;3.25;;;1.80;;
79570;SDS011;69034;49.444;7.758;2023-04-24T18:37:53;3.88;;;2.00;;
79570;SDS011;69034;49.444;7.758;2023-04-24T18:41:53;5.45;;;2.15;;
79570;SDS011;69034;49.444;7.758;2023-04-24T18:45:54;4.38;;;1.83;;
79570;SDS011;69034;49.444;7.758;2023-04-24T18:49:55;5.45;;;3.38;;
79570;SDS011;69034;49.444;7.758;2023-04-24T18:53:56;4.95;;;1.98;;
79570;SDS011;69034;49.444;7.758;2023-04-24T18:57:56;3.80;;;1.95;;
79570;SDS011;69034;49.444;7.758;2023-04-24T19:01:57;5.05;;;1.67;;
79570;SDS011;69034;49.444;7.758;2023-04-24T19:05:58;4.13;;;1.73;;
79570;SDS011;69034;49.444;7.758;2023-04-24T19:09:58;4.50;;;1.80;;
79570;SDS011;69034;49.444;7.758;2023-04-24T19:13:59;5.35;;;2.08;;
79570;SDS011;69034;49.444;7.758;2023-04-24T19:18:02;4.07;;;1.65;;
79570;SDS011;69034;49.444;7.758;2023-04-24T19:22:03;3.53;;;1.45;;
79570;SDS011;69034;49.444;7.758;2023-04-24T19:26:04;4.40;;;1.85;;
79570;SDS011;69034;49.444;7.758;2023-04-24T19:30:05;3.75;;;1.58;;
79570;SDS011;69034;49.444;7.758;2023-04-24T19:34:06;3.70;;;1.42;;
79570;SDS011;69034;49.444;7.758;2023-04-24T19:38:07;3.17;;;1.65;;
79570;SDS011;69034;49.444;7.758;2023-04-24T19:42:08;3.90;;;1.70;;
79570;SDS011;69034;49.444;7.758;2023-04-24T19:46:08;4.88;;;1.98;;
79570;SDS011;69034;49.444;7.758;2023-04-24T19:50:09;6.22;;;2.10;;
79570;SDS011;69034;49.444;7.758;2023-04-24T19:54:10;4.53;;;1.92;;
79570;SDS011;69034;49.444;7.758;2023-04-24T19:58:11;5.22;;;2.30;;
79570;SDS011;69034;49.444;7.758;2023-04-24T20:02:11;2.88;;;1.30;;
79570;SDS011;69034;49.444;7.758;2023-04-24T20:06:12;5.00;;;2.63;;
79570;SDS011;69034;49.444;7.758;2023-04-24T20:10:13;5.63;;;2.30;;
79570;SDS011;69034;49.444;7.758;2023-04-24T20:14:13;3.50;;;1.60;;
79570;SDS011;69034;49.444;7.758;2023-04-24T20:18:14;5.15;;;1.92;;
79570;SDS011;69034;49.444;7.758;2023-04-24T20:22:15;3.92;;;1.95;;
79570;SDS011;69034;49.444;7.758;2023-04-24T20:26:16;3.90;;;1.55;;
79570;SDS011;69034;49.444;7.758;2023-04-24T20:30:17;3.67;;;1.88;;
79570;SDS011;69034;49.444;7.758;2023-04-24T20:34:18;3.35;;;1.75;;
79570;SDS011;69034;49.444;7.758;2023-04-24T20:38:19;2.50;;;1.40;;
79570;SDS011;69034;49.444;7.758;2023-04-24T20:42:21;3.05;;;1.23;;
79570;SDS011;69034;49.444;7.758;2023-04-24T20:46:22;6.68;;;2.22;;
79570;SDS011;69034;49.444;7.758;2023-04-24T20:50:22;2.90;;;1.15;;
79570;SDS011;69034;49.444;7.758;2023-04-24T20:54:24;3.80;;;1.80;;
79570;SDS011;69034;49.444;7.758;2023-04-24T20:58:24;2.65;;;1.35;;
79570;SDS011;69034;49.444;7.758;2023-04-24T21:02:25;4.35;;;1.50;;
79570;SDS011;69034;49.444;7.758;2023-04-24T21:06:26;3.38;;;1.45;;
79570;SDS011;69034;49.444;7.758;2023-04-24T21:10:26;3.90;;;1.50;;
79570;SDS011;69034;49.444;7.758;2023-04-24T21:14:27;3.67;;;1.50;;
79570;SDS011;69034;49.444;7.758;2023-04-24T21:18:28;2.17;;;0.98;;
79570;SDS011;69034;49.444;7.758;2023-04-24T21:22:29;2.22;;;0.85;;
79570;SDS011;69034;49.444;7.758;2023-04-24T21:26:29;2.42;;;1.00;;
79570;SDS011;69034;49.444;7.758;2023-04-24T21:30:30;3.00;;;1.70;;
79570;SDS011;69034;49.444;7.758;2023-04-24T21:34:31;3.50;;;1.48;;
79570;SDS011;69034;49.444;7.758;2023-04-24T21:38:31;2.65;;;1.05;;
79570;SDS011;69034;49.444;7.758;2023-04-24T21:42:32;2.38;;;0.90;;
79570;SDS011;69034;49.444;7.758;2023-04-24T21:46:33;4.78;;;1.90;;
79570;SDS011;69034;49.444;7.758;2023-04-24T21:50:33;4.07;;;1.65;;
79570;SDS011;69034;49.444;7.758;2023-04-24T21:54:34;2.70;;;1.23;;
79570;SDS011;69034;49.444;7.758;2023-04-24T21:58:35;3.50;;;1.75;;
79570;SDS011;69034;49.444;7.758;2023-04-24T22:02:36;3.03;;;1.38;;
79570;SDS011;69034;49.444;7.758;2023-04-24T22:06:36;4.00;;;1.58;;
79570;SDS011;69034;49.444;7.758;2023-04-24T22:10:37;5.30;;;2.05;;
79570;SDS011;69034;49.444;7.758;2023-04-24T22:14:38;4.93;;;1.75;;
79570;SDS011;69034;49.444;7.758;2023-04-24T22:18:38;3.30;;;1.40;;
79570;SDS011;69034;49.444;7.758;2023-04-24T22:22:39;2.83;;;1.10;;
79570;SDS011;69034;49.444;7.758;2023-04-24T22:26:40;2.58;;;1.30;;
79570;SDS011;69034;49.444;7.758;2023-04-24T22:30:41;3.65;;;1.63;;
79570;SDS011;69034;49.444;7.758;2023-04-24T22:34:42;4.07;;;1.38;;
79570;SDS011;69034;49.444;7.758;2023-04-24T22:38:43;5.43;;;1.58;;
79570;SDS011;69034;49.444;7.758;2023-04-24T22:42:44;3.60;;;1.60;;
79570;SDS011;69034;49.444;7.758;2023-04-24T22:46:44;3.05;;;1.50;;
79570;SDS011;69034;49.444;7.758;2023-04-24T22:50:46;3.38;;;1.52;;
79570;SDS011;69034;49.444;7.758;2023-04-24T22:54:47;3.13;;;1.40;;
79570;SDS011;69034;49.444;7.758;2023-04-24T22:58:47;5.03;;;1.48;;
79570;SDS011;69034;49.444;7.758;2023-04-24T23:02:48;2.53;;;1.13;;
79570;SDS011;69034;49.444;7.758;2023-04-24T23:06:49;3.83;;;1.80;;
79570;SDS011;69034;49.444;7.758;2023-04-24T23:10:50;3.17;;;1.60;;
79570;SDS011;69034;49.444;7.758;2023-04-24T23:14:50;4.72;;;1.35;;
79570;SDS011;69034;49.444;7.758;2023-04-24T23:18:51;2.60;;;1.13;;
79570;SDS011;69034;49.444;7.758;2023-04-24T23:22:52;3.10;;;1.42;;
79570;SDS011;69034;49.444;7.758;2023-04-24T23:26:52;3.90;;;2.03;;
79570;SDS011;69034;49.444;7.758;2023-04-24T23:30:53;3.08;;;1.23;;
79570;SDS011;69034;49.444;7.758;2023-04-24T23:34:54;4.68;;;1.52;;
79570;SDS011;69034;49.444;7.758;2023-04-24T23:38:55;3.30;;;1.67;;
79570;SDS011;69034;49.444;7.758;2023-04-24T23:42:56;3.67;;;1.33;;
79570;SDS011;69034;49.444;7.758;2023-04-24T23:46:56;3.67;;;1.77;;
79570;SDS011;69034;49.444;7.758;2023-04-24T23:50:57;4.03;;;1.58;;
79570;SDS011;69034;49.444;7.758;2023-04-24T23:54:58;4.10;;;1.60;;
79570;SDS011;69034;49.444;7.758;2023-04-24T23:58:59;4.60;;;2.10;;
